Time;durP1;ratioP1;P1;durP2;ratioP2;P2;SDS_P1;SDS_P2;PMS_P1;PMS_P2;Temp;Humidity;BMP_temperature;BMP_pressure;BME280_temperature;BME280_humidity;BME280_pressure;Samples;Min_cycle;Max_cycle;Signal;HPM_P1;HPM_P2
2023/12/25 00:00:19;;;;;;;2.83;2.63;;;;;;;11.92;100.00;100368.50;5073141;28;20052;-72
2023/12/25 00:02:46;;;;;;;2.60;2.40;;;;;;;11.92;100.00;100361.41;5067367;28;20055;-72
2023/12/25 00:05:13;;;;;;;3.30;2.50;;;;;;;11.93;100.00;100347.28;5081498;28;20055;-72
2023/12/25 00:07:40;;;;;;;3.05;2.58;;;;;;;11.93;100.00;100352.56;5066469;28;20044;-71
2023/12/25 00:10:08;;;;;;;2.75;2.50;;;;;;;11.92;100.00;100355.28;5061729;28;20113;-71
2023/12/25 00:12:35;;;;;;;2.70;2.50;;;;;;;11.92;100.00;100368.50;5100680;28;20059;-72
2023/12/25 00:15:03;;;;;;;3.13;2.80;;;;;;;11.92;100.00;100369.34;5066730;28;20723;-72
2023/12/25 00:17:31;;;;;;;2.60;2.40;;;;;;;11.92;100.00;100374.63;5064415;28;20037;-72
2023/12/25 00:19:58;;;;;;;3.20;2.40;;;;;;;11.94;100.00;100374.59;5055498;28;20051;-72
2023/12/25 00:22:25;;;;;;;2.65;2.45;;;;;;;11.91;100.00;100370.25;5066840;28;20097;-72
2023/12/25 00:24:52;;;;;;;2.70;2.50;;;;;;;11.92;100.00;100368.50;5067304;28;20040;-72
2023/12/25 00:27:20;;;;;;;3.05;2.85;;;;;;;11.92;100.00;100357.94;5099311;28;20047;-73
2023/12/25 00:29:47;;;;;;;3.35;2.90;;;;;;;11.91;100.00;100357.06;5048625;28;20094;-72
2023/12/25 00:32:16;;;;;;;2.85;2.65;;;;;;;11.92;100.00;100348.22;5066441;28;20488;-72
2023/12/25 00:34:43;;;;;;;3.15;2.85;;;;;;;11.93;100.00;100342.00;5083064;28;20041;-72
2023/12/25 00:37:10;;;;;;;3.40;3.10;;;;;;;11.91;100.00;100335.09;5081225;28;20084;-72
2023/12/25 00:39:37;;;;;;;4.38;3.22;;;;;;;11.90;100.00;100341.28;5062065;28;20040;-72
2023/12/25 00:42:05;;;;;;;3.63;3.10;;;;;;;11.88;100.00;100336.09;5066818;28;20076;-73
2023/12/25 00:44:32;;;;;;;3.65;3.22;;;;;;;11.85;100.00;100346.78;5060058;28;20087;-72
2023/12/25 00:46:59;;;;;;;3.60;3.30;;;;;;;11.86;100.00;100351.13;5066891;28;20044;-73
2023/12/25 00:49:26;;;;;;;3.80;2.80;;;;;;;11.84;100.00;100350.34;5066078;28;20490;-73
2023/12/25 00:51:53;;;;;;;2.95;2.75;;;;;;;11.82;100.00;100349.53;5047667;28;20509;-72
2023/12/25 00:54:20;;;;;;;2.95;2.70;;;;;;;11.84;100.00;100360.06;5064426;28;20505;-72
2023/12/25 00:56:47;;;;;;;2.75;2.55;;;;;;;11.82;100.00;100368.03;5065670;28;20537;-72
2023/12/25 00:59:15;;;;;;;2.90;2.70;;;;;;;11.83;100.00;100368.91;5066412;28;20044;-72
2023/12/25 01:01:42;;;;;;;3.60;3.25;;;;;;;11.81;100.00;100367.19;5067093;28;20044;-72
2023/12/25 01:04:09;;;;;;;3.05;2.80;;;;;;;11.80;100.00;100359.34;5062553;28;20068;-71
2023/12/25 01:06:37;;;;;;;3.38;2.80;;;;;;;11.75;100.00;100364.78;5063184;28;20094;-72
2023/12/25 01:09:04;;;;;;;3.05;2.65;;;;;;;11.74;100.00;100371.03;5060676;28;20048;-72
2023/12/25 01:11:31;;;;;;;3.88;3.28;;;;;;;11.71;100.00;100378.19;5066734;28;20581;-73
2023/12/25 01:13:58;;;;;;;3.60;3.30;;;;;;;11.68;100.00;100368.63;5069979;28;20048;-73
2023/12/25 01:16:26;;;;;;;3.45;3.15;;;;;;;11.67;100.00;100368.69;5067093;28;20052;-73
2023/12/25 01:18:53;;;;;;;3.83;3.53;;;;;;;11.67;100.00;100377.47;5068444;28;20044;-72
2023/12/25 01:21:21;;;;;;;3.97;3.58;;;;;;;11.64;100.00;100377.63;5057571;28;20152;-72
2023/12/25 01:23:49;;;;;;;5.68;3.35;;;;;;;11.64;100.00;100382.88;5066686;28;20044;-73
2023/12/25 01:26:18;;;;;;;4.18;3.80;;;;;;;11.65;100.00;100380.19;5071491;28;20066;-73
2023/12/25 01:28:45;;;;;;;3.88;3.53;;;;;;;11.65;100.00;100384.59;5060545;28;20128;-73
2023/12/25 01:31:12;;;;;;;4.53;4.13;;;;;;;11.67;100.00;100389.81;5054388;28;20335;-73
2023/12/25 01:33:40;;;;;;;4.35;3.95;;;;;;;11.69;100.00;100394.09;5070001;28;20076;-73
2023/12/25 01:36:08;;;;;;;3.92;3.63;;;;;;;11.72;100.00;100393.09;5069155;28;20048;-73
2023/12/25 01:38:36;;;;;;;5.10;4.43;;;;;;;11.73;100.00;100400.97;5068135;28;20132;-73
2023/12/25 01:41:03;;;;;;;4.47;4.10;;;;;;;11.76;100.00;100392.91;5070934;28;20045;-74
2023/12/25 01:43:39;;;;;;;5.22;4.65;;;;;;;11.78;100.00;100396.34;5085751;28;20557;-74
2023/12/25 01:46:06;;;;;;;5.30;4.25;;;;;;;11.81;100.00;100401.50;5085746;28;20044;-73
2023/12/25 01:48:34;;;;;;;4.90;4.13;;;;;;;11.83;100.00;100398.78;5102486;28;20044;-73
2023/12/25 01:51:03;;;;;;;5.90;4.53;;;;;;;11.85;100.00;100391.66;5071727;28;20044;-72
2023/12/25 01:53:30;;;;;;;5.03;4.38;;;;;;;11.84;100.00;100395.22;5096354;28;20447;-73
2023/12/25 01:55:58;;;;;;;5.00;4.50;;;;;;;11.88;100.00;100406.53;5074221;28;20041;-71
2023/12/25 01:58:25;;;;;;;5.03;4.53;;;;;;;11.86;100.00;100411.00;5070984;28;20060;-72
2023/12/25 02:00:52;;;;;;;4.97;4.47;;;;;;;11.88;100.00;100407.41;5081480;28;20047;-72
2023/12/25 02:03:19;;;;;;;5.45;4.45;;;;;;;11.90;100.00;100415.25;5066779;28;20127;-72
2023/12/25 02:05:47;;;;;;;5.25;4.28;;;;;;;11.91;100.00;100425.72;5070466;28;20048;-71
2023/12/25 02:08:17;;;;;;;4.50;4.10;;;;;;;11.89;100.00;100408.25;5050128;28;20571;-71
2023/12/25 02:10:44;;;;;;;4.88;4.05;;;;;;;11.93;100.00;100421.25;5087085;28;20043;-70
2023/12/25 02:13:11;;;;;;;4.30;4.00;;;;;;;11.93;100.00;100405.41;5068917;28;20543;-71
2023/12/25 02:15:39;;;;;;;5.45;4.32;;;;;;;11.94;100.00;100409.75;5069654;28;20051;-71
2023/12/25 02:18:08;;;;;;;5.18;4.00;;;;;;;11.95;100.00;100421.22;5069728;28;20528;-71
2023/12/25 02:20:36;;;;;;;4.25;3.88;;;;;;;11.96;100.00;100418.50;5085984;28;20123;-71
2023/12/25 02:23:08;;;;;;;6.18;4.28;;;;;;;11.98;100.00;100413.16;5079568;28;20074;-71
2023/12/25 02:25:54;;;;;;;5.22;4.25;;;;;;;11.99;100.00;100416.69;5066958;28;20094;-71
2023/12/25 02:28:22;;;;;;;6.07;4.25;;;;;;;11.98;100.00;100412.31;5070102;28;20060;-71
2023/12/25 02:30:51;;;;;;;5.53;4.30;;;;;;;11.97;100.00;100411.41;5068461;28;20040;-71
2023/12/25 02:33:18;;;;;;;5.43;4.45;;;;;;;11.93;100.00;100421.25;5084692;28;20072;-71
2023/12/25 02:35:46;;;;;;;5.25;4.65;;;;;;;11.95;100.00;100426.50;5084908;28;20068;-71
2023/12/25 02:38:13;;;;;;;5.93;4.40;;;;;;;11.94;100.00;100422.13;5067955;28;20064;-72
2023/12/25 02:40:40;;;;;;;7.57;5.07;;;;;;;11.92;100.00;100421.31;5051694;28;20132;-71
2023/12/25 02:43:08;;;;;;;6.88;5.15;;;;;;;11.93;100.00;100431.81;5069482;28;20048;-72
2023/12/25 02:45:36;;;;;;;7.75;5.20;;;;;;;11.93;100.00;100425.69;5084881;28;20044;-72
2023/12/25 02:48:04;;;;;;;5.78;5.18;;;;;;;11.94;100.00;100432.69;5070756;28;20044;-72
2023/12/25 02:50:32;;;;;;;6.05;5.40;;;;;;;11.92;100.00;100429.25;5082792;28;20056;-72
2023/12/25 02:53:03;;;;;;;6.15;5.55;;;;;;;11.93;100.00;100426.53;5050306;28;20064;-72
2023/12/25 02:55:31;;;;;;;6.05;5.32;;;;;;;11.94;100.00;100424.78;5067971;28;20169;-71
2023/12/25 02:57:59;;;;;;;5.75;5.10;;;;;;;11.92;100.00;100430.09;5084344;28;20037;-72
2023/12/25 03:00:26;;;;;;;6.88;5.20;;;;;;;11.94;100.00;100430.06;5086861;28;20445;-71
2023/12/25 03:02:53;;;;;;;7.75;6.13;;;;;;;11.94;100.00;100427.41;5064914;28;20465;-72
2023/12/25 03:05:20;;;;;;;7.05;6.28;;;;;;;11.94;100.00;100422.13;5067788;28;20063;-72
2023/12/25 03:07:48;;;;;;;7.45;5.93;;;;;;;11.95;100.00;100432.63;5066937;28;20197;-72
2023/12/25 03:10:16;;;;;;;6.70;5.47;;;;;;;11.98;100.00;100428.16;5100969;28;20040;-72
2023/12/25 03:12:43;;;;;;;6.20;5.60;;;;;;;11.99;100.00;100436.00;5065413;28;20427;-72
2023/12/25 03:15:11;;;;;;;6.60;6.00;;;;;;;11.98;100.00;100439.56;5067007;28;20064;-71
2023/12/25 03:17:38;;;;;;;7.75;6.15;;;;;;;11.99;100.00;100443.94;5084448;28;20680;-72
2023/12/25 03:20:06;;;;;;;8.20;5.80;;;;;;;12.00;100.00;100439.53;5066520;28;20124;-73
2023/12/25 03:22:33;;;;;;;6.68;5.63;;;;;;;11.99;100.00;100430.72;5073098;28;20044;-73
2023/12/25 03:25:01;;;;;;;6.22;5.63;;;;;;;11.98;100.00;100429.00;5060066;28;20123;-72
2023/12/25 03:27:28;;;;;;;8.88;5.63;;;;;;;12.01;100.00;100431.53;5083985;28;20047;-72
2023/12/25 03:29:55;;;;;;;7.38;5.35;;;;;;;12.02;100.00;100427.97;5067544;28;20044;-72
2023/12/25 03:32:22;;;;;;;8.40;5.63;;;;;;;12.02;100.00;100441.19;5068094;28;20044;-71
2023/12/25 03:34:50;;;;;;;5.68;5.18;;;;;;;12.05;100.00;100443.69;5080601;28;20110;-71
2023/12/25 03:37:17;;;;;;;6.72;4.60;;;;;;;12.03;100.00;100436.75;5098123;28;20052;-71
2023/12/25 03:39:44;;;;;;;6.93;4.70;;;;;;;12.04;100.00;100446.38;5064788;28;20040;-71
2023/12/25 03:42:12;;;;;;;6.10;4.40;;;;;;;12.06;100.00;100463.03;5059991;28;20041;-71
2023/12/25 03:44:39;;;;;;;6.07;4.40;;;;;;;12.03;100.00;100457.88;5065057;28;20044;-71
2023/12/25 03:47:06;;;;;;;5.90;4.50;;;;;;;12.06;100.00;100455.97;5065019;28;20051;-71
2023/12/25 03:49:33;;;;;;;5.70;4.40;;;;;;;12.07;100.00;100468.25;5074873;28;20045;-71
2023/12/25 03:52:01;;;;;;;6.25;4.53;;;;;;;12.08;100.00;100461.19;5083881;28;20050;-71
2023/12/25 03:54:29;;;;;;;5.00;4.50;;;;;;;12.08;100.00;100479.69;5068207;28;20048;-71
2023/12/25 03:56:57;;;;;;;5.30;4.50;;;;;;;12.06;100.00;100476.25;5066766;28;20046;-71
2023/12/25 03:59:24;;;;;;;6.10;4.57;;;;;;;12.08;100.00;100471.75;5066908;28;20056;-71
2023/12/25 04:01:53;;;;;;;5.13;4.55;;;;;;;12.07;100.00;100467.41;5066252;28;20048;-71
2023/12/25 04:04:20;;;;;;;5.88;5.10;;;;;;;12.07;100.00;100460.31;5069103;28;20068;-71
2023/12/25 04:06:47;;;;;;;7.25;4.68;;;;;;;12.09;100.00;100469.03;5083515;28;20064;-70
2023/12/25 04:09:15;;;;;;;4.90;4.40;;;;;;;12.09;100.00;100463.75;5067604;28;20049;-71
2023/12/25 04:11:42;;;;;;;5.55;4.97;;;;;;;12.11;100.00;100466.31;5068155;28;20043;-70
2023/12/25 04:14:09;;;;;;;5.20;4.20;;;;;;;12.09;100.00;100471.69;5076346;28;20098;-70
2023/12/25 04:16:36;;;;;;;6.65;4.93;;;;;;;12.10;100.00;100469.91;5068120;28;20082;-70
2023/12/25 04:19:04;;;;;;;5.32;4.88;;;;;;;12.11;100.00;100461.03;5068447;28;20044;-70
2023/12/25 04:21:31;;;;;;;6.40;5.57;;;;;;;12.10;100.00;100460.19;5082352;28;20050;-71
2023/12/25 04:24:00;;;;;;;5.78;5.28;;;;;;;12.06;100.00;100458.59;5071990;28;20191;-71
2023/12/25 04:26:37;;;;;;;6.20;5.60;;;;;;;12.05;100.00;100437.53;5082103;28;20176;-71
2023/12/25 04:29:33;;;;;;;5.88;5.28;;;;;;;12.04;100.00;100451.66;5065911;28;20051;-71
2023/12/25 04:32:25;;;;;;;6.60;6.00;;;;;;;12.03;100.00;100450.81;5064995;28;20087;-71
2023/12/25 04:34:59;;;;;;;7.28;6.63;;;;;;;12.03;100.00;100452.59;5063525;28;20059;-71
2023/12/25 04:37:27;;;;;;;7.10;6.43;;;;;;;12.01;100.00;100447.38;5082506;28;20113;-71
2023/12/25 04:39:54;;;;;;;6.65;6.05;;;;;;;12.00;100.00;100445.66;5065819;28;20532;-71
2023/12/25 04:42:25;;;;;;;5.68;5.18;;;;;;;12.01;100.00;100446.50;5083187;28;20037;-71
2023/12/25 04:44:52;;;;;;;5.72;5.18;;;;;;;12.00;100.00;100442.19;5061864;28;20450;-71
2023/12/25 04:47:19;;;;;;;5.28;4.85;;;;;;;12.00;100.00;100440.38;5082942;28;20125;-71
2023/12/25 04:49:46;;;;;;;5.13;4.70;;;;;;;11.98;100.00;100434.28;5082374;28;20119;-71
2023/12/25 04:52:13;;;;;;;5.50;5.00;;;;;;;11.95;100.00;100427.34;5084835;28;20099;-71
2023/12/25 04:54:40;;;;;;;5.40;4.85;;;;;;;11.93;100.00;100436.25;5071476;28;20048;-71
2023/12/25 04:57:07;;;;;;;5.60;5.00;;;;;;;11.93;100.00;100433.63;5088101;28;20053;-72
2023/12/25 04:59:34;;;;;;;5.38;4.88;;;;;;;11.90;100.00;100437.25;5068672;28;20491;-72
2023/12/25 05:02:03;;;;;;;5.53;5.03;;;;;;;11.85;100.00;100433.09;5069612;28;20516;-72
2023/12/25 05:04:30;;;;;;;6.60;5.80;;;;;;;11.81;100.00;100438.50;5070545;28;20048;-72
2023/12/25 05:06:57;;;;;;;6.30;5.55;;;;;;;11.76;100.00;100426.41;5071815;28;20722;-72
2023/12/25 05:09:24;;;;;;;6.20;5.60;;;;;;;11.72;100.00;100438.00;5068407;28;20072;-72
2023/12/25 05:11:51;;;;;;;6.40;5.80;;;;;;;11.68;100.00;100441.72;5071414;28;20127;-72
2023/12/25 05:14:19;;;;;;;6.55;5.90;;;;;;;11.64;100.00;100454.19;5069850;28;20041;-73
2023/12/25 05:16:46;;;;;;;7.38;6.50;;;;;;;11.55;100.00;100434.28;5058904;28;20107;-74
2023/12/25 05:19:13;;;;;;;6.95;6.35;;;;;;;11.48;100.00;100435.47;5069347;28;20032;-74
2023/12/25 05:21:40;;;;;;;6.90;6.18;;;;;;;11.44;100.00;100418.03;5069344;28;20052;-74
2023/12/25 05:24:07;;;;;;;6.10;5.50;;;;;;;11.42;100.00;100431.28;5056113;28;20626;-74
2023/12/25 05:26:34;;;;;;;5.93;5.10;;;;;;;11.42;100.00;100433.94;5049890;28;20055;-74
2023/12/25 05:29:02;;;;;;;5.63;4.60;;;;;;;11.42;100.00;100440.97;5051143;28;20120;-75
2023/12/25 05:31:29;;;;;;;5.68;5.15;;;;;;;11.40;100.00;100437.53;5061958;28;20188;-75
2023/12/25 05:33:56;;;;;;;5.50;5.00;;;;;;;11.38;100.00;100432.31;5068743;28;20044;-74
2023/12/25 05:36:23;;;;;;;4.18;3.80;;;;;;;11.36;100.00;100423.59;5069059;28;20442;-73
2023/12/25 05:38:52;;;;;;;3.20;3.00;;;;;;;11.36;100.00;100428.03;5059710;28;20068;-73
2023/12/25 05:41:43;;;;;;;2.78;2.55;;;;;;;11.36;100.00;100428.88;5059853;28;20127;-72
2023/12/25 05:44:10;;;;;;;2.40;2.20;;;;;;;11.33;100.00;100448.34;5063388;28;20041;-72
2023/12/25 05:46:38;;;;;;;2.45;2.20;;;;;;;11.30;100.00;100443.19;5062939;28;20135;-72
2023/12/25 05:49:11;;;;;;;1.52;1.30;;;;;;;11.26;100.00;100441.59;5067180;28;20064;-67
2023/12/25 05:51:38;;;;;;;1.70;1.20;;;;;;;11.16;100.00;100437.59;5076017;28;20123;-74
2023/12/25 05:54:07;;;;;;;3.00;0.80;;;;;;;11.09;100.00;100446.69;5063192;28;20172;-72
2023/12/25 05:56:34;;;;;;;1.15;0.60;;;;;;;10.97;100.00;100453.25;5075890;28;20044;-72
2023/12/25 05:59:05;;;;;;;2.25;0.60;;;;;;;10.86;100.00;100454.53;5061908;28;20644;-72
2023/12/25 06:01:32;;;;;;;2.55;0.70;;;;;;;10.75;100.00;100479.59;5061270;28;20127;-72
2023/12/25 06:04:00;;;;;;;1.23;0.70;;;;;;;10.65;100.00;100452.69;5065666;28;20066;-73
2023/12/25 06:06:28;;;;;;;1.50;0.60;;;;;;;10.56;100.00;100462.66;5062083;28;20485;-72
2023/12/25 06:08:55;;;;;;;0.50;0.40;;;;;;;10.47;100.00;100484.06;5061595;28;20040;-72
2023/12/25 06:11:23;;;;;;;1.80;0.50;;;;;;;10.42;100.00;100486.03;5075445;28;20029;-73
2023/12/25 06:13:50;;;;;;;1.92;0.60;;;;;;;10.34;100.00;100482.75;5061452;28;20037;-73
2023/12/25 06:16:17;;;;;;;3.15;0.50;;;;;;;10.31;100.00;100478.47;5093398;28;20045;-73
2023/12/25 06:18:44;;;;;;;1.80;0.70;;;;;;;10.27;100.00;100490.03;5076056;28;20041;-73
2023/12/25 06:21:15;;;;;;;2.17;0.60;;;;;;;10.22;100.00;100490.19;5084822;28;20060;-72
2023/12/25 06:23:45;;;;;;;1.95;0.50;;;;;;;10.16;100.00;100498.28;5096363;28;20567;-72
2023/12/25 06:26:15;;;;;;;2.05;0.50;;;;;;;10.15;100.00;100490.44;5065985;28;20392;-72
2023/12/25 06:28:43;;;;;;;1.67;0.35;;;;;;;10.14;100.00;100480.81;5091065;28;20465;-72
2023/12/25 06:31:12;;;;;;;1.52;0.45;;;;;;;10.08;100.00;100469.56;5063353;28;20033;-71
2023/12/25 06:33:39;;;;;;;1.65;0.40;;;;;;;10.05;100.00;100479.34;5062584;28;20041;-63
2023/12/25 06:36:07;;;;;;;0.73;0.32;;;;;;;9.98;100.00;100486.59;5081740;28;20044;-74
2023/12/25 06:38:35;;;;;;;1.42;0.32;;;;;;;9.93;100.00;100483.28;5036470;28;20072;-73
2023/12/25 06:41:03;;;;;;;1.98;0.40;;;;;;;9.88;100.00;100493.06;5081272;28;20750;-72
2023/12/25 06:43:31;;;;;;;2.75;0.40;;;;;;;9.84;100.00;100479.16;5065882;28;20040;-74
2023/12/25 06:45:58;;;;;;;0.55;0.25;;;;;;;9.79;100.00;100491.63;5067721;28;20131;-74
2023/12/25 06:48:25;;;;;;;1.35;0.40;;;;;;;9.72;100.00;100485.69;5067457;28;20045;-69
2023/12/25 06:50:53;;;;;;;2.08;0.50;;;;;;;9.69;100.00;100495.47;5068119;28;20040;-72
2023/12/25 06:53:21;;;;;;;2.30;0.57;;;;;;;9.63;100.00;100499.16;5067879;28;20119;-71
2023/12/25 06:55:51;;;;;;;1.70;0.50;;;;;;;9.60;100.00;100497.50;5060648;28;20163;-71
2023/12/25 06:58:18;;;;;;;1.75;0.50;;;;;;;9.56;100.00;100505.53;5062225;28;20140;-72
2023/12/25 07:00:45;;;;;;;1.15;0.50;;;;;;;9.52;100.00;100507.38;5100018;28;20090;-71
2023/12/25 07:03:12;;;;;;;3.42;0.52;;;;;;;9.51;100.00;100517.94;5065789;28;20045;-72
2023/12/25 07:05:40;;;;;;;1.45;0.50;;;;;;;9.50;100.00;100514.47;5056322;28;20036;-71
2023/12/25 07:08:08;;;;;;;1.42;0.50;;;;;;;9.48;100.00;100503.97;5063793;28;20046;-71
2023/12/25 07:10:36;;;;;;;2.67;0.60;;;;;;;9.47;100.00;100509.28;5095956;28;20491;-71
2023/12/25 07:13:03;;;;;;;2.65;0.70;;;;;;;9.44;100.00;100520.78;5083736;28;20098;-71
2023/12/25 07:15:33;;;;;;;4.43;0.60;;;;;;;9.43;100.00;100515.56;5059969;28;20542;-72
2023/12/25 07:18:00;;;;;;;2.25;0.80;;;;;;;9.38;100.00;100499.91;5094507;28;20507;-71
2023/12/25 07:20:28;;;;;;;4.00;0.70;;;;;;;9.35;100.00;100514.94;5099133;28;20066;-71
2023/12/25 07:22:55;;;;;;;1.42;0.52;;;;;;;9.36;100.00;100517.50;5088913;28;20048;-71
2023/12/25 07:25:22;;;;;;;3.97;0.90;;;;;;;9.33;100.00;100517.63;5072365;28;20123;-72
2023/12/25 07:27:49;;;;;;;4.32;0.70;;;;;;;9.30;100.00;100520.34;5067113;28;20040;-72
2023/12/25 07:30:17;;;;;;;3.55;0.70;;;;;;;9.27;100.00;100526.56;5083381;28;20099;-73
2023/12/25 07:32:44;;;;;;;3.65;0.70;;;;;;;9.27;100.00;100530.94;5048262;28;20048;-72
2023/12/25 07:35:11;;;;;;;3.47;0.68;;;;;;;9.21;100.00;100523.25;5068666;28;20089;-73
2023/12/25 07:37:38;;;;;;;2.47;0.60;;;;;;;9.21;100.00;100555.66;5067684;28;20056;-72
2023/12/25 07:40:06;;;;;;;1.30;0.60;;;;;;;9.20;100.00;100535.53;5061196;28;20108;-72
2023/12/25 07:42:33;;;;;;;4.60;0.80;;;;;;;9.17;100.00;100533.84;5051214;28;20052;-72
2023/12/25 07:45:00;;;;;;;1.70;0.60;;;;;;;9.14;100.00;100536.59;5058372;28;20115;-72
2023/12/25 07:47:28;;;;;;;4.70;0.82;;;;;;;9.17;100.00;100551.41;5076381;28;20097;-72
2023/12/25 07:49:55;;;;;;;2.30;0.80;;;;;;;9.15;100.00;100550.56;5068146;28;20044;-72
2023/12/25 07:52:22;;;;;;;3.88;0.70;;;;;;;9.13;100.00;100555.00;5067484;28;20484;-73
2023/12/25 07:54:49;;;;;;;2.40;0.60;;;;;;;9.12;100.00;100558.53;5056287;28;20067;-72
2023/12/25 07:57:16;;;;;;;3.92;0.80;;;;;;;9.11;100.00;100546.31;5063576;28;20050;-72
2023/12/25 07:59:44;;;;;;;2.83;0.90;;;;;;;9.09;100.00;100554.25;5097895;28;20051;-72
2023/12/25 08:02:11;;;;;;;6.18;0.85;;;;;;;9.08;100.00;100549.88;5067058;28;20514;-72
2023/12/25 08:04:38;;;;;;;2.38;0.60;;;;;;;9.07;100.00;100550.78;5099630;28;20067;-72
2023/12/25 08:07:05;;;;;;;4.28;0.63;;;;;;;9.08;100.00;100564.81;5067305;28;20530;-72
2023/12/25 08:09:32;;;;;;;2.30;0.52;;;;;;;9.06;100.00;100569.25;5052219;28;20072;-72
2023/12/25 08:11:59;;;;;;;2.97;0.70;;;;;;;9.04;100.00;100564.03;5086002;28;20067;-73
2023/12/25 08:14:26;;;;;;;4.45;0.70;;;;;;;9.06;100.00;100564.84;5065145;28;20094;-73
2023/12/25 08:16:53;;;;;;;3.30;0.80;;;;;;;9.08;100.00;100554.31;5083581;28;20131;-73
2023/12/25 08:19:20;;;;;;;5.10;2.55;;;;;;;9.11;100.00;100554.19;5069068;28;20512;-72
2023/12/25 08:21:48;;;;;;;3.92;1.30;;;;;;;9.15;100.00;100567.25;5067174;28;20448;-75
2023/12/25 08:24:15;;;;;;;3.30;1.15;;;;;;;9.19;100.00;100556.59;5066421;28;20044;-72
2023/12/25 08:26:42;;;;;;;2.50;0.55;;;;;;;9.20;100.00;100569.72;5049985;28;20122;-72
2023/12/25 08:29:10;;;;;;;2.35;0.80;;;;;;;9.23;100.00;100568.78;5065038;28;20127;-72
2023/12/25 08:31:39;;;;;;;3.78;1.00;;;;;;;9.25;100.00;100565.19;5065187;28;20040;-71
2023/12/25 08:34:06;;;;;;;3.33;0.90;;;;;;;9.28;100.00;100569.50;5052644;28;20076;-71
2023/12/25 08:36:34;;;;;;;3.25;1.00;;;;;;;9.31;100.00;100569.41;5066078;28;20055;-72
2023/12/25 08:39:01;;;;;;;2.17;0.60;;;;;;;9.34;100.00;100571.97;5067324;28;20052;-72
2023/12/25 08:41:28;;;;;;;3.47;1.33;;;;;;;9.34;100.00;100564.06;5066186;28;20792;-72
2023/12/25 08:43:55;;;;;;;5.43;2.35;;;;;;;9.36;100.00;100578.00;5061742;28;20059;-72
2023/12/25 08:46:23;;;;;;;7.70;3.67;;;;;;;9.39;100.00;100585.81;5060296;28;20045;-72
2023/12/25 08:48:50;;;;;;;3.65;0.82;;;;;;;9.39;100.00;100585.81;5058996;28;20128;-72
2023/12/25 08:51:17;;;;;;;2.25;1.10;;;;;;;9.41;100.00;100581.38;5058691;28;20037;-72
2023/12/25 08:53:45;;;;;;;3.13;1.15;;;;;;;9.44;100.00;100588.31;5082243;28;20090;-72
2023/12/25 08:56:22;;;;;;;3.38;0.88;;;;;;;9.45;100.00;100588.28;5064932;28;20099;-72
2023/12/25 08:58:50;;;;;;;3.50;1.00;;;;;;;9.44;100.00;100586.56;5079899;28;20041;-72
2023/12/25 09:01:17;;;;;;;4.53;1.10;;;;;;;9.47;100.00;100591.72;5063078;28;20094;-72
2023/12/25 09:03:44;;;;;;;6.07;1.27;;;;;;;9.47;100.00;100591.72;5062760;28;20060;-72
2023/12/25 09:06:12;;;;;;;7.63;2.80;;;;;;;9.49;100.00;100604.84;5092603;28;20048;-72
2023/12/25 09:08:40;;;;;;;3.35;1.13;;;;;;;9.51;100.00;100599.53;5053416;28;20712;-72
2023/12/25 09:11:09;;;;;;;5.38;1.10;;;;;;;9.51;100.00;100595.16;5067417;28;20580;-72
2023/12/25 09:13:36;;;;;;;5.25;1.25;;;;;;;9.52;100.00;100596.00;5060111;28;20118;-72
2023/12/25 09:16:04;;;;;;;7.00;2.78;;;;;;;9.54;100.00;100602.94;5051585;28;20041;-71
2023/12/25 09:18:31;;;;;;;4.32;0.98;;;;;;;9.54;100.00;100608.19;5065569;28;20129;-72
2023/12/25 09:20:58;;;;;;;2.45;0.80;;;;;;;9.54;100.00;100616.09;5045015;28;20035;-72
2023/12/25 09:23:26;;;;;;;2.55;0.80;;;;;;;9.56;100.00;100626.59;5064693;28;20234;-72
2023/12/25 09:25:56;;;;;;;12.55;8.70;;;;;;;9.54;100.00;100617.88;5065922;28;20044;-72
2023/12/25 09:28:23;;;;;;;3.50;0.80;;;;;;;9.56;100.00;100634.47;5066745;28;20131;-72
2023/12/25 09:30:50;;;;;;;3.40;0.77;;;;;;;9.56;100.00;100634.47;5063240;28;20123;-71
2023/12/25 09:33:19;;;;;;;2.42;1.00;;;;;;;9.58;100.00;100640.53;5061859;28;20036;-72
2023/12/25 09:35:49;;;;;;;4.45;0.82;;;;;;;9.58;100.00;100646.69;5064420;28;20037;-72
2023/12/25 09:38:16;;;;;;;5.18;1.00;;;;;;;9.58;100.00;100648.44;5063619;28;20064;-72
2023/12/25 09:40:43;;;;;;;1.67;0.65;;;;;;;9.61;100.00;100656.25;5069228;28;20086;-72
2023/12/25 09:43:10;;;;;;;3.08;0.90;;;;;;;9.60;100.00;100659.78;5068287;28;20106;-72
2023/12/25 09:45:37;;;;;;;6.85;1.20;;;;;;;9.60;100.00;100663.28;5067935;28;20353;-72
2023/12/25 09:48:07;;;;;;;4.85;0.77;;;;;;;9.61;100.00;100656.25;5069201;28;20087;-72
2023/12/25 09:50:38;;;;;;;5.90;0.85;;;;;;;9.62;100.00;100647.44;5053642;28;20464;-72
2023/12/25 09:53:06;;;;;;;3.70;0.70;;;;;;;9.64;100.00;100654.38;5069461;28;20044;-72
2023/12/25 09:55:33;;;;;;;3.13;1.10;;;;;;;9.63;100.00;100651.81;5069809;28;20057;-72
2023/12/25 09:58:07;;;;;;;3.63;1.10;;;;;;;9.63;100.00;100646.53;5068528;28;20048;-72
2023/12/25 10:00:35;;;;;;;2.55;0.90;;;;;;;9.65;100.00;100647.38;5064696;28;20040;-72
2023/12/25 10:03:03;;;;;;;5.18;0.90;;;;;;;9.67;100.00;100652.56;5069801;28;20040;-72
2023/12/25 10:05:30;;;;;;;5.55;1.02;;;;;;;9.69;100.00;100656.88;5069536;28;20121;-72
2023/12/25 10:07:57;;;;;;;2.92;0.70;;;;;;;9.69;100.00;100643.72;5070983;28;20068;-72
2023/12/25 10:10:29;;;;;;;3.63;0.80;;;;;;;9.77;100.00;100639.06;5067799;28;20037;-71
2023/12/25 10:13:01;;;;;;;4.05;0.75;;;;;;;9.81;100.00;100633.72;5067121;28;20041;-72
2023/12/25 10:15:28;;;;;;;2.17;0.80;;;;;;;9.84;100.00;100626.59;5066832;28;20462;-71
2023/12/25 10:18:06;;;;;;;2.72;0.90;;;;;;;9.90;100.00;100618.53;5069697;28;20044;-71
2023/12/25 10:20:33;;;;;;;4.47;1.60;;;;;;;9.92;100.00;100623.72;5056295;28;20615;-72
2023/12/25 10:23:12;;;;;;;8.90;1.25;;;;;;;9.92;100.00;100636.91;5059054;28;20067;-72
2023/12/25 10:25:48;;;;;;;2.53;0.70;;;;;;;9.88;100.00;100640.53;5067628;28;20093;-73
2023/12/25 10:28:16;;;;;;;2.55;0.68;;;;;;;9.84;100.00;100650.28;5080854;28;20066;-72
2023/12/25 10:30:43;;;;;;;4.20;0.75;;;;;;;9.79;100.00;100666.22;5092313;28;20123;-72
2023/12/25 10:33:14;;;;;;;3.55;0.93;;;;;;;9.75;100.00;100664.63;5069129;28;20655;-71
2023/12/25 10:35:42;;;;;;;4.40;0.77;;;;;;;9.73;100.00;100663.78;5061425;28;20040;-71
2023/12/25 10:38:21;;;;;;;4.88;1.00;;;;;;;9.73;100.00;100666.44;5076244;28;20646;-71
2023/12/25 10:40:48;;;;;;;8.10;1.00;;;;;;;9.73;100.00;100662.91;5059919;28;20124;-71
2023/12/25 10:43:18;;;;;;;4.10;0.90;;;;;;;9.72;100.00;100666.44;5081549;28;20412;-71
2023/12/25 10:45:52;;;;;;;6.30;0.80;;;;;;;9.73;100.00;100663.78;5069910;28;20037;-72
2023/12/25 10:48:23;;;;;;;2.45;0.80;;;;;;;9.73;100.00;100668.19;5084098;28;20047;-71
2023/12/25 10:50:53;;;;;;;3.47;0.80;;;;;;;9.71;100.00;100655.06;5069242;28;20592;-72
2023/12/25 10:53:21;;;;;;;3.72;0.70;;;;;;;9.71;100.00;100657.69;5070205;28;20040;-72
2023/12/25 10:55:49;;;;;;;2.35;0.60;;;;;;;9.72;100.00;100643.63;5069268;28;20052;-72
2023/12/25 10:58:19;;;;;;;8.15;4.07;;;;;;;9.75;100.00;100634.78;5087437;28;20036;-71
2023/12/25 11:00:56;;;;;;;132.68;93.07;;;;;;;9.83;100.00;100616.97;5072835;28;20450;-72
2023/12/25 11:03:24;;;;;;;12.25;7.55;;;;;;;9.92;100.00;100618.47;5047182;28;20182;-72
2023/12/25 11:05:52;;;;;;;4.30;1.30;;;;;;;9.98;100.00;100620.91;5042030;28;20121;-72
2023/12/25 11:08:20;;;;;;;6.85;0.90;;;;;;;10.00;100.00;100616.44;5086016;28;20112;-72
2023/12/25 11:11:01;;;;;;;3.55;1.02;;;;;;;10.00;100.00;100626.97;5084545;28;20521;-72
2023/12/25 11:13:31;;;;;;;3.00;0.80;;;;;;;9.97;100.00;100627.06;5086903;28;20044;-71
2023/12/25 11:15:58;;;;;;;2.20;0.77;;;;;;;9.94;100.00;100635.94;5085161;28;20051;-71
2023/12/25 11:18:25;;;;;;;4.75;0.85;;;;;;;9.87;100.00;100646.72;5099530;28;20444;-72
2023/12/25 11:21:12;;;;;;;4.13;1.00;;;;;;;9.81;100.00;100657.44;5068293;28;20112;-72
2023/12/25 11:23:41;;;;;;;2.88;0.88;;;;;;;9.76;100.00;100652.31;5077121;28;20440;-72